createdAt,value
2019-05-11T00:07:22.791Z,3
2019-05-11T00:17:28.942Z,6
2019-05-11T00:27:34.045Z,5
2019-05-11T00:37:39.557Z,3
2019-05-11T00:47:43.728Z,5
2019-05-11T00:57:48.473Z,5
2019-05-11T01:07:55.894Z,6
2019-05-11T01:18:01.221Z,5
2019-05-11T01:28:05.687Z,3
2019-05-11T01:38:11.952Z,5
2019-05-11T01:48:16.327Z,3
2019-05-11T01:58:21.212Z,3
2019-05-11T02:08:26.260Z,4
2019-05-11T02:18:31.499Z,3
2019-05-11T02:28:36.076Z,6
2019-05-11T02:38:44.000Z,3
2019-05-11T02:48:51.188Z,4
2019-05-11T02:58:58.521Z,4
2019-05-11T03:09:03.636Z,5
2019-05-11T03:19:09.720Z,4
2019-05-11T03:29:14.176Z,4
2019-05-11T03:39:19.315Z,4
2019-05-11T03:49:24.601Z,5
2019-05-11T03:59:29.926Z,4
2019-05-11T04:09:36.668Z,3
2019-05-11T04:19:42.695Z,4
2019-05-11T04:29:49.443Z,4
2019-05-11T04:39:54.963Z,4
2019-05-11T04:50:00.761Z,6
2019-05-11T05:00:06.021Z,4
2019-05-11T05:10:22.279Z,3
2019-05-11T05:20:14.052Z,4
2019-05-11T05:30:19.589Z,5
2019-05-11T05:40:24.346Z,5
2019-05-11T05:50:29.288Z,6
2019-05-11T06:00:34.990Z,5
2019-05-11T06:10:39.950Z,6
2019-05-11T06:20:46.184Z,4
2019-05-11T06:30:48.658Z,4
2019-05-11T06:40:53.117Z,3
2019-05-11T06:50:57.564Z,5
2019-05-11T07:01:01.945Z,4
2019-05-11T07:11:06.378Z,5
2019-05-11T07:21:25.991Z,4
2019-05-11T07:31:18.382Z,7
2019-05-11T07:41:23.455Z,7
2019-05-11T07:51:29.485Z,4
2019-05-11T08:01:38.275Z,6
2019-05-11T08:11:44.034Z,5
2019-05-11T08:21:48.501Z,5
2019-05-11T08:31:50.415Z,3
2019-05-11T08:42:03.715Z,5
2019-05-11T08:52:04.114Z,3
2019-05-11T09:02:10.543Z,5
2019-05-11T09:12:14.837Z,4
2019-05-11T09:22:20.018Z,3
2019-05-11T09:32:28.214Z,16
2019-05-11T09:42:30.204Z,7
2019-05-11T09:52:35.586Z,5
2019-05-11T10:02:44.055Z,4
2019-05-11T10:12:53.119Z,5
2019-05-11T10:22:51.216Z,4
2019-05-11T10:32:59.934Z,4
2019-05-11T10:43:05.034Z,4
2019-05-11T10:53:10.008Z,4
2019-05-11T11:03:10.626Z,6
2019-05-11T11:13:18.197Z,5
2019-05-11T11:23:30.183Z,4
2019-05-11T11:33:28.292Z,7
2019-05-11T11:43:31.229Z,6
2019-05-11T11:53:35.176Z,4
2019-05-11T12:03:41.359Z,5
2019-05-11T12:13:48.247Z,4
2019-05-11T12:23:50.610Z,3
2019-05-11T12:33:55.054Z,4
2019-05-11T12:44:03.975Z,4
2019-05-11T12:54:09.478Z,4
2019-05-11T13:04:10.713Z,4
2019-05-11T13:14:18.770Z,4
2019-05-11T13:24:21.256Z,3
2019-05-11T13:34:32.099Z,4
2019-05-11T13:44:35.694Z,4
2019-05-11T13:54:45.559Z,4
2019-05-11T14:04:47.568Z,6
2019-05-11T14:14:50.170Z,4
2019-05-11T14:24:58.025Z,4
2019-05-11T14:35:00.855Z,4
2019-05-11T14:45:09.911Z,3
2019-05-11T14:55:15.547Z,5
2019-05-11T15:05:19.378Z,5
2019-05-11T15:15:24.411Z,4
2019-05-11T15:25:31.433Z,3
2019-05-11T15:35:39.810Z,2
2019-05-11T15:45:49.426Z,4
2019-05-11T15:55:50.342Z,3
2019-05-11T16:05:55.329Z,6
2019-05-11T16:16:01.147Z,4
2019-05-11T16:26:11.680Z,4
2019-05-11T16:36:10.013Z,3
2019-05-11T16:46:17.610Z,30
2019-05-11T16:56:21.015Z,32
2019-05-11T17:06:25.536Z,54
2019-05-11T17:16:30.544Z,55
2019-05-11T17:26:40.389Z,5
2019-05-11T17:36:45.690Z,4
2019-05-11T17:46:49.713Z,4
2019-05-11T17:56:57.564Z,18
2019-05-11T18:07:00.719Z,59
2019-05-11T18:17:10.358Z,55
2019-05-11T18:27:15.606Z,59
2019-05-11T18:37:19.715Z,11
2019-05-11T18:47:21.093Z,5
2019-05-11T18:57:28.136Z,3
2019-05-11T19:07:45.007Z,3
2019-05-11T19:17:39.272Z,5
2019-05-11T19:27:40.565Z,3
2019-05-11T19:37:48.559Z,3
2019-05-11T19:47:50.869Z,4
2019-05-11T19:57:59.169Z,3
2019-05-11T20:08:08.760Z,3
2019-05-11T20:18:10.364Z,2
2019-05-11T20:28:15.232Z,4
2019-05-11T20:38:19.889Z,4
2019-05-11T20:48:24.964Z,2
2019-05-11T20:58:29.512Z,3
2019-05-11T21:08:34.284Z,3
2019-05-11T21:18:39.654Z,3
2019-05-11T21:28:40.948Z,3
2019-05-11T21:38:48.976Z,3
2019-05-11T21:48:50.882Z,3
2019-05-11T21:58:59.597Z,3
2019-05-11T22:09:04.375Z,4
2019-05-11T22:19:19.514Z,2
2019-05-11T22:29:18.020Z,4
2019-05-11T22:39:21.150Z,3
2019-05-11T22:49:25.263Z,4
2019-05-11T22:59:31.180Z,2
2019-05-11T23:09:40.760Z,11
2019-05-11T23:19:45.381Z,22
2019-05-11T23:29:47.979Z,6
2019-05-11T23:39:53.632Z,6
2019-05-11T23:49:59.593Z,4
